sensor_id;sensor_type;location;lat;lon;timestamp;P1;durP1;ratioP1;P2;durP2;ratioP2
30515;SDS011;17297;54.022;10.760;2023-11-21T00:01:57;8.35;;;4.45;;
30515;SDS011;17297;54.022;10.760;2023-11-21T00:04:22;6.70;;;3.97;;
30515;SDS011;17297;54.022;10.760;2023-11-21T00:06:48;8.43;;;4.07;;
30515;SDS011;17297;54.022;10.760;2023-11-21T00:09:14;15.05;;;5.40;;
30515;SDS011;17297;54.022;10.760;2023-11-21T00:11:43;10.82;;;5.13;;
30515;SDS011;17297;54.022;10.760;2023-11-21T00:14:09;8.85;;;4.63;;
30515;SDS011;17297;54.022;10.760;2023-11-21T00:16:35;7.45;;;4.18;;
30515;SDS011;17297;54.022;10.760;2023-11-21T00:19:01;6.85;;;4.57;;
30515;SDS011;17297;54.022;10.760;2023-11-21T00:21:26;9.93;;;4.53;;
30515;SDS011;17297;54.022;10.760;2023-11-21T00:23:51;12.45;;;5.03;;
30515;SDS011;17297;54.022;10.760;2023-11-21T00:26:17;10.90;;;4.97;;
30515;SDS011;17297;54.022;10.760;2023-11-21T00:28:48;13.05;;;4.88;;
30515;SDS011;17297;54.022;10.760;2023-11-21T00:31:13;10.77;;;4.53;;
30515;SDS011;17297;54.022;10.760;2023-11-21T00:33:39;7.85;;;4.07;;
30515;SDS011;17297;54.022;10.760;2023-11-21T00:36:04;8.48;;;4.35;;
30515;SDS011;17297;54.022;10.760;2023-11-21T00:38:34;9.75;;;4.75;;
30515;SDS011;17297;54.022;10.760;2023-11-21T00:41:05;7.05;;;4.05;;
30515;SDS011;17297;54.022;10.760;2023-11-21T00:43:31;10.93;;;4.38;;
30515;SDS011;17297;54.022;10.760;2023-11-21T00:45:58;6.45;;;5.03;;
30515;SDS011;17297;54.022;10.760;2023-11-21T00:48:23;8.27;;;4.47;;
30515;SDS011;17297;54.022;10.760;2023-11-21T00:50:48;9.65;;;5.20;;
30515;SDS011;17297;54.022;10.760;2023-11-21T00:53:15;9.32;;;5.28;;
30515;SDS011;17297;54.022;10.760;2023-11-21T00:55:40;9.20;;;5.82;;
30515;SDS011;17297;54.022;10.760;2023-11-21T00:58:06;10.55;;;5.53;;
30515;SDS011;17297;54.022;10.760;2023-11-21T01:00:32;7.68;;;4.68;;
30515;SDS011;17297;54.022;10.760;2023-11-21T01:02:58;9.20;;;5.20;;
30515;SDS011;17297;54.022;10.760;2023-11-21T01:05:24;10.00;;;5.18;;
30515;SDS011;17297;54.022;10.760;2023-11-21T01:07:49;8.77;;;5.10;;
30515;SDS011;17297;54.022;10.760;2023-11-21T01:10:16;9.75;;;6.20;;
30515;SDS011;17297;54.022;10.760;2023-11-21T01:12:42;11.18;;;5.20;;
30515;SDS011;17297;54.022;10.760;2023-11-21T01:15:08;8.90;;;4.70;;
30515;SDS011;17297;54.022;10.760;2023-11-21T01:17:34;7.50;;;5.18;;
30515;SDS011;17297;54.022;10.760;2023-11-21T01:20:00;9.50;;;4.63;;
30515;SDS011;17297;54.022;10.760;2023-11-21T01:22:26;6.63;;;4.50;;
30515;SDS011;17297;54.022;10.760;2023-11-21T01:24:53;5.65;;;4.45;;
30515;SDS011;17297;54.022;10.760;2023-11-21T01:27:19;7.45;;;4.18;;
30515;SDS011;17297;54.022;10.760;2023-11-21T01:29:44;6.60;;;4.15;;
30515;SDS011;17297;54.022;10.760;2023-11-21T01:32:09;8.10;;;5.35;;
30515;SDS011;17297;54.022;10.760;2023-11-21T01:34:36;8.02;;;4.45;;
30515;SDS011;17297;54.022;10.760;2023-11-21T01:37:01;7.30;;;4.50;;
30515;SDS011;17297;54.022;10.760;2023-11-21T01:39:27;8.30;;;5.25;;
30515;SDS011;17297;54.022;10.760;2023-11-21T01:41:53;8.98;;;5.57;;
30515;SDS011;17297;54.022;10.760;2023-11-21T01:44:18;6.68;;;4.03;;
30515;SDS011;17297;54.022;10.760;2023-11-21T01:46:44;11.02;;;5.03;;
30515;SDS011;17297;54.022;10.760;2023-11-21T01:49:11;8.02;;;3.70;;
30515;SDS011;17297;54.022;10.760;2023-11-21T01:51:38;6.35;;;3.42;;
30515;SDS011;17297;54.022;10.760;2023-11-21T01:54:05;8.30;;;3.28;;
30515;SDS011;17297;54.022;10.760;2023-11-21T01:56:31;6.40;;;3.92;;
30515;SDS011;17297;54.022;10.760;2023-11-21T01:58:57;6.13;;;3.10;;
30515;SDS011;17297;54.022;10.760;2023-11-21T02:01:23;9.93;;;4.78;;
30515;SDS011;17297;54.022;10.760;2023-11-21T02:03:48;8.50;;;4.40;;
30515;SDS011;17297;54.022;10.760;2023-11-21T02:06:13;11.30;;;4.47;;
30515;SDS011;17297;54.022;10.760;2023-11-21T02:08:39;8.55;;;4.13;;
30515;SDS011;17297;54.022;10.760;2023-11-21T02:11:04;6.78;;;3.38;;
30515;SDS011;17297;54.022;10.760;2023-11-21T02:13:30;9.40;;;3.55;;
30515;SDS011;17297;54.022;10.760;2023-11-21T02:15:57;6.03;;;3.45;;
30515;SDS011;17297;54.022;10.760;2023-11-21T02:18:23;8.00;;;3.30;;
30515;SDS011;17297;54.022;10.760;2023-11-21T02:20:48;7.78;;;4.18;;
30515;SDS011;17297;54.022;10.760;2023-11-21T02:23:14;4.93;;;3.47;;
30515;SDS011;17297;54.022;10.760;2023-11-21T02:25:39;10.15;;;4.60;;
30515;SDS011;17297;54.022;10.760;2023-11-21T02:28:07;4.70;;;3.10;;
30515;SDS011;17297;54.022;10.760;2023-11-21T02:30:33;4.97;;;3.33;;
30515;SDS011;17297;54.022;10.760;2023-11-21T02:33:02;8.73;;;4.18;;
30515;SDS011;17297;54.022;10.760;2023-11-21T02:35:27;5.15;;;3.10;;
30515;SDS011;17297;54.022;10.760;2023-11-21T02:37:53;6.15;;;4.28;;
30515;SDS011;17297;54.022;10.760;2023-11-21T02:40:18;7.18;;;3.33;;
30515;SDS011;17297;54.022;10.760;2023-11-21T02:42:48;9.05;;;3.75;;
30515;SDS011;17297;54.022;10.760;2023-11-21T02:45:16;5.57;;;3.55;;
30515;SDS011;17297;54.022;10.760;2023-11-21T02:47:44;8.23;;;4.07;;
30515;SDS011;17297;54.022;10.760;2023-11-21T02:50:10;5.85;;;2.65;;
30515;SDS011;17297;54.022;10.760;2023-11-21T02:52:35;5.13;;;3.00;;
30515;SDS011;17297;54.022;10.760;2023-11-21T02:55:01;7.32;;;3.55;;
30515;SDS011;17297;54.022;10.760;2023-11-21T02:57:27;6.97;;;3.38;;
30515;SDS011;17297;54.022;10.760;2023-11-21T02:59:53;6.60;;;3.10;;
30515;SDS011;17297;54.022;10.760;2023-11-21T03:02:19;5.18;;;3.42;;
30515;SDS011;17297;54.022;10.760;2023-11-21T03:04:45;4.50;;;3.22;;
30515;SDS011;17297;54.022;10.760;2023-11-21T03:07:10;5.28;;;3.00;;
30515;SDS011;17297;54.022;10.760;2023-11-21T03:09:35;9.52;;;3.22;;
30515;SDS011;17297;54.022;10.760;2023-11-21T03:12:01;5.75;;;3.50;;
30515;SDS011;17297;54.022;10.760;2023-11-21T03:14:27;5.22;;;3.00;;
30515;SDS011;17297;54.022;10.760;2023-11-21T03:16:52;6.28;;;2.75;;
30515;SDS011;17297;54.022;10.760;2023-11-21T03:19:18;7.70;;;4.05;;
30515;SDS011;17297;54.022;10.760;2023-11-21T03:21:43;4.38;;;2.58;;
30515;SDS011;17297;54.022;10.760;2023-11-21T03:24:08;4.47;;;2.67;;
30515;SDS011;17297;54.022;10.760;2023-11-21T03:26:34;5.85;;;3.47;;
30515;SDS011;17297;54.022;10.760;2023-11-21T03:28:59;9.55;;;3.70;;
30515;SDS011;17297;54.022;10.760;2023-11-21T03:31:25;5.65;;;2.58;;
30515;SDS011;17297;54.022;10.760;2023-11-21T03:33:51;4.43;;;3.35;;
30515;SDS011;17297;54.022;10.760;2023-11-21T03:36:18;5.22;;;2.72;;
30515;SDS011;17297;54.022;10.760;2023-11-21T03:38:44;9.27;;;4.70;;
30515;SDS011;17297;54.022;10.760;2023-11-21T03:41:10;6.70;;;3.22;;
30515;SDS011;17297;54.022;10.760;2023-11-21T03:43:36;5.72;;;3.40;;
30515;SDS011;17297;54.022;10.760;2023-11-21T03:46:02;3.85;;;2.97;;
30515;SDS011;17297;54.022;10.760;2023-11-21T03:48:27;5.32;;;3.03;;
30515;SDS011;17297;54.022;10.760;2023-11-21T03:50:53;4.80;;;3.15;;
30515;SDS011;17297;54.022;10.760;2023-11-21T03:53:21;3.97;;;3.05;;
30515;SDS011;17297;54.022;10.760;2023-11-21T03:55:46;4.60;;;2.83;;
30515;SDS011;17297;54.022;10.760;2023-11-21T03:58:11;5.63;;;2.38;;
30515;SDS011;17297;54.022;10.760;2023-11-21T04:00:37;4.80;;;2.78;;
30515;SDS011;17297;54.022;10.760;2023-11-21T04:03:03;4.28;;;2.70;;
30515;SDS011;17297;54.022;10.760;2023-11-21T04:05:28;5.70;;;3.10;;
30515;SDS011;17297;54.022;10.760;2023-11-21T04:07:53;3.03;;;2.15;;
30515;SDS011;17297;54.022;10.760;2023-11-21T04:10:19;5.53;;;2.90;;
30515;SDS011;17297;54.022;10.760;2023-11-21T04:12:45;4.40;;;2.40;;
30515;SDS011;17297;54.022;10.760;2023-11-21T04:15:10;6.28;;;3.00;;
30515;SDS011;17297;54.022;10.760;2023-11-21T04:17:37;5.03;;;3.17;;
30515;SDS011;17297;54.022;10.760;2023-11-21T04:20:03;5.45;;;2.40;;
30515;SDS011;17297;54.022;10.760;2023-11-21T04:22:38;4.65;;;2.50;;
30515;SDS011;17297;54.022;10.760;2023-11-21T04:25:09;4.47;;;2.90;;
30515;SDS011;17297;54.022;10.760;2023-11-21T04:27:36;8.25;;;2.65;;
30515;SDS011;17297;54.022;10.760;2023-11-21T04:30:02;6.07;;;2.63;;
30515;SDS011;17297;54.022;10.760;2023-11-21T04:32:28;6.47;;;3.65;;
30515;SDS011;17297;54.022;10.760;2023-11-21T04:34:53;5.07;;;2.70;;
30515;SDS011;17297;54.022;10.760;2023-11-21T04:37:19;6.43;;;3.35;;
30515;SDS011;17297;54.022;10.760;2023-11-21T04:39:44;4.50;;;2.75;;
30515;SDS011;17297;54.022;10.760;2023-11-21T04:42:09;5.80;;;2.67;;
30515;SDS011;17297;54.022;10.760;2023-11-21T04:44:35;7.28;;;2.95;;
30515;SDS011;17297;54.022;10.760;2023-11-21T04:47:00;3.60;;;2.38;;
30515;SDS011;17297;54.022;10.760;2023-11-21T04:49:26;7.80;;;4.07;;
30515;SDS011;17297;54.022;10.760;2023-11-21T04:51:52;4.63;;;3.22;;
30515;SDS011;17297;54.022;10.760;2023-11-21T04:54:17;7.43;;;2.33;;
30515;SDS011;17297;54.022;10.760;2023-11-21T04:56:42;4.93;;;2.75;;
30515;SDS011;17297;54.022;10.760;2023-11-21T04:59:08;6.80;;;2.72;;
30515;SDS011;17297;54.022;10.760;2023-11-21T05:01:33;6.25;;;2.83;;
30515;SDS011;17297;54.022;10.760;2023-11-21T05:03:58;6.45;;;3.55;;
30515;SDS011;17297;54.022;10.760;2023-11-21T05:06:23;5.45;;;2.53;;
30515;SDS011;17297;54.022;10.760;2023-11-21T05:08:49;6.28;;;2.55;;
30515;SDS011;17297;54.022;10.760;2023-11-21T05:11:24;7.38;;;3.03;;
30515;SDS011;17297;54.022;10.760;2023-11-21T05:13:53;6.53;;;2.85;;
30515;SDS011;17297;54.022;10.760;2023-11-21T05:16:20;6.55;;;2.83;;
30515;SDS011;17297;54.022;10.760;2023-11-21T05:18:45;5.93;;;3.20;;
30515;SDS011;17297;54.022;10.760;2023-11-21T05:21:10;5.65;;;2.92;;
30515;SDS011;17297;54.022;10.760;2023-11-21T05:23:36;9.55;;;3.28;;
30515;SDS011;17297;54.022;10.760;2023-11-21T05:26:02;7.50;;;3.53;;
30515;SDS011;17297;54.022;10.760;2023-11-21T05:28:28;8.20;;;2.90;;
30515;SDS011;17297;54.022;10.760;2023-11-21T05:30:53;5.05;;;2.40;;
30515;SDS011;17297;54.022;10.760;2023-11-21T05:33:18;4.35;;;2.03;;
30515;SDS011;17297;54.022;10.760;2023-11-21T05:35:44;5.03;;;2.40;;
30515;SDS011;17297;54.022;10.760;2023-11-21T05:38:09;5.90;;;2.38;;
30515;SDS011;17297;54.022;10.760;2023-11-21T05:40:34;6.35;;;3.50;;
30515;SDS011;17297;54.022;10.760;2023-11-21T05:43:00;5.88;;;2.70;;
30515;SDS011;17297;54.022;10.760;2023-11-21T05:45:25;6.78;;;3.50;;
30515;SDS011;17297;54.022;10.760;2023-11-21T05:47:50;5.90;;;2.78;;
30515;SDS011;17297;54.022;10.760;2023-11-21T05:50:16;5.63;;;3.25;;
30515;SDS011;17297;54.022;10.760;2023-11-21T05:52:43;3.25;;;2.38;;
30515;SDS011;17297;54.022;10.760;2023-11-21T05:55:10;7.15;;;2.38;;
30515;SDS011;17297;54.022;10.760;2023-11-21T05:57:39;5.75;;;2.33;;
30515;SDS011;17297;54.022;10.760;2023-11-21T06:00:05;13.38;;;3.92;;
30515;SDS011;17297;54.022;10.760;2023-11-21T06:02:43;4.78;;;2.30;;
30515;SDS011;17297;54.022;10.760;2023-11-21T06:05:10;5.18;;;1.90;;
30515;SDS011;17297;54.022;10.760;2023-11-21T06:07:35;4.32;;;2.53;;
30515;SDS011;17297;54.022;10.760;2023-11-21T06:10:03;7.10;;;2.72;;
30515;SDS011;17297;54.022;10.760;2023-11-21T06:12:32;6.97;;;2.47;;
30515;SDS011;17297;54.022;10.760;2023-11-21T06:15:01;4.30;;;2.53;;
30515;SDS011;17297;54.022;10.760;2023-11-21T06:17:29;3.72;;;2.35;;
30515;SDS011;17297;54.022;10.760;2023-11-21T06:19:55;8.68;;;3.60;;
30515;SDS011;17297;54.022;10.760;2023-11-21T06:22:20;5.93;;;2.03;;
30515;SDS011;17297;54.022;10.760;2023-11-21T06:24:46;3.83;;;1.98;;
30515;SDS011;17297;54.022;10.760;2023-11-21T06:27:11;2.45;;;1.90;;
30515;SDS011;17297;54.022;10.760;2023-11-21T06:29:36;4.45;;;1.90;;
30515;SDS011;17297;54.022;10.760;2023-11-21T06:32:02;4.60;;;1.92;;
30515;SDS011;17297;54.022;10.760;2023-11-21T06:34:30;6.30;;;2.80;;
30515;SDS011;17297;54.022;10.760;2023-11-21T06:36:55;5.50;;;3.10;;
30515;SDS011;17297;54.022;10.760;2023-11-21T06:39:21;7.90;;;3.03;;
30515;SDS011;17297;54.022;10.760;2023-11-21T06:41:48;4.13;;;2.60;;
30515;SDS011;17297;54.022;10.760;2023-11-21T06:44:14;3.75;;;2.55;;
30515;SDS011;17297;54.022;10.760;2023-11-21T06:46:40;4.72;;;2.58;;
30515;SDS011;17297;54.022;10.760;2023-11-21T06:49:07;6.90;;;3.45;;
30515;SDS011;17297;54.022;10.760;2023-11-21T06:51:33;3.72;;;2.85;;
30515;SDS011;17297;54.022;10.760;2023-11-21T06:53:58;4.07;;;3.17;;
30515;SDS011;17297;54.022;10.760;2023-11-21T06:56:23;5.97;;;3.55;;
30515;SDS011;17297;54.022;10.760;2023-11-21T06:58:49;5.75;;;3.00;;
30515;SDS011;17297;54.022;10.760;2023-11-21T07:01:15;7.72;;;3.50;;
30515;SDS011;17297;54.022;10.760;2023-11-21T07:03:40;4.22;;;3.45;;
30515;SDS011;17297;54.022;10.760;2023-11-21T07:06:06;5.80;;;3.33;;
30515;SDS011;17297;54.022;10.760;2023-11-21T07:08:32;4.72;;;3.10;;
30515;SDS011;17297;54.022;10.760;2023-11-21T07:10:58;5.85;;;3.10;;
30515;SDS011;17297;54.022;10.760;2023-11-21T07:13:23;10.38;;;3.00;;
30515;SDS011;17297;54.022;10.760;2023-11-21T07:15:49;5.28;;;3.08;;
30515;SDS011;17297;54.022;10.760;2023-11-21T07:18:14;5.25;;;2.63;;
30515;SDS011;17297;54.022;10.760;2023-11-21T07:20:40;6.97;;;3.30;;
30515;SDS011;17297;54.022;10.760;2023-11-21T07:23:05;5.32;;;2.65;;
30515;SDS011;17297;54.022;10.760;2023-11-21T07:25:31;3.83;;;2.55;;
30515;SDS011;17297;54.022;10.760;2023-11-21T07:27:57;3.13;;;2.40;;
30515;SDS011;17297;54.022;10.760;2023-11-21T07:30:22;6.10;;;2.90;;
30515;SDS011;17297;54.022;10.760;2023-11-21T07:32:48;6.35;;;2.70;;
30515;SDS011;17297;54.022;10.760;2023-11-21T07:35:14;5.15;;;3.17;;
30515;SDS011;17297;54.022;10.760;2023-11-21T07:37:39;6.53;;;3.22;;
30515;SDS011;17297;54.022;10.760;2023-11-21T07:40:04;3.58;;;2.40;;
30515;SDS011;17297;54.022;10.760;2023-11-21T07:42:31;6.97;;;3.53;;
30515;SDS011;17297;54.022;10.760;2023-11-21T07:44:57;10.00;;;3.58;;
30515;SDS011;17297;54.022;10.760;2023-11-21T07:47:22;6.20;;;3.45;;
30515;SDS011;17297;54.022;10.760;2023-11-21T07:49:52;4.50;;;2.70;;
30515;SDS011;17297;54.022;10.760;2023-11-21T07:52:17;7.00;;;2.80;;
30515;SDS011;17297;54.022;10.760;2023-11-21T07:54:42;6.25;;;3.22;;
30515;SDS011;17297;54.022;10.760;2023-11-21T07:57:08;4.15;;;2.65;;
30515;SDS011;17297;54.022;10.760;2023-11-21T07:59:33;12.15;;;2.75;;
30515;SDS011;17297;54.022;10.760;2023-11-21T08:01:58;7.15;;;2.67;;
30515;SDS011;17297;54.022;10.760;2023-11-21T08:04:24;5.13;;;2.42;;
30515;SDS011;17297;54.022;10.760;2023-11-21T08:06:49;5.72;;;2.55;;
30515;SDS011;17297;54.022;10.760;2023-11-21T08:09:14;5.15;;;2.67;;
30515;SDS011;17297;54.022;10.760;2023-11-21T08:11:42;5.18;;;2.75;;
30515;SDS011;17297;54.022;10.760;2023-11-21T08:14:07;4.97;;;2.58;;
30515;SDS011;17297;54.022;10.760;2023-11-21T08:16:33;3.97;;;2.25;;
30515;SDS011;17297;54.022;10.760;2023-11-21T08:18:58;2.17;;;1.80;;
30515;SDS011;17297;54.022;10.760;2023-11-21T08:21:23;3.22;;;1.70;;
30515;SDS011;17297;54.022;10.760;2023-11-21T08:23:50;5.93;;;2.65;;
30515;SDS011;17297;54.022;10.760;2023-11-21T08:26:19;3.55;;;2.30;;
30515;SDS011;17297;54.022;10.760;2023-11-21T08:28:44;4.90;;;2.40;;
30515;SDS011;17297;54.022;10.760;2023-11-21T08:31:10;4.72;;;2.92;;
30515;SDS011;17297;54.022;10.760;2023-11-21T08:33:35;2.95;;;1.92;;
30515;SDS011;17297;54.022;10.760;2023-11-21T08:36:00;3.92;;;2.40;;
30515;SDS011;17297;54.022;10.760;2023-11-21T08:38:26;4.15;;;2.17;;
30515;SDS011;17297;54.022;10.760;2023-11-21T08:40:53;4.63;;;2.38;;
30515;SDS011;17297;54.022;10.760;2023-11-21T08:43:19;5.30;;;2.17;;
30515;SDS011;17297;54.022;10.760;2023-11-21T08:45:45;4.80;;;2.97;;
30515;SDS011;17297;54.022;10.760;2023-11-21T08:48:10;5.60;;;2.30;;
30515;SDS011;17297;54.022;10.760;2023-11-21T08:50:36;3.70;;;2.28;;
30515;SDS011;17297;54.022;10.760;2023-11-21T08:53:02;3.30;;;1.70;;
30515;SDS011;17297;54.022;10.760;2023-11-21T08:55:27;2.65;;;1.80;;
30515;SDS011;17297;54.022;10.760;2023-11-21T08:57:53;4.88;;;1.90;;
30515;SDS011;17297;54.022;10.760;2023-11-21T09:00:19;2.20;;;2.00;;
30515;SDS011;17297;54.022;10.760;2023-11-21T09:02:44;5.63;;;1.90;;
30515;SDS011;17297;54.022;10.760;2023-11-21T09:05:10;2.47;;;1.80;;
30515;SDS011;17297;54.022;10.760;2023-11-21T09:07:36;3.95;;;1.90;;
30515;SDS011;17297;54.022;10.760;2023-11-21T09:10:03;4.65;;;2.38;;
30515;SDS011;17297;54.022;10.760;2023-11-21T09:12:30;2.70;;;1.77;;
30515;SDS011;17297;54.022;10.760;2023-11-21T09:14:57;5.50;;;1.90;;
30515;SDS011;17297;54.022;10.760;2023-11-21T09:17:22;4.00;;;1.83;;
30515;SDS011;17297;54.022;10.760;2023-11-21T09:19:48;4.03;;;1.90;;
30515;SDS011;17297;54.022;10.760;2023-11-21T09:22:16;4.15;;;2.30;;
30515;SDS011;17297;54.022;10.760;2023-11-21T09:24:42;4.55;;;2.20;;
30515;SDS011;17297;54.022;10.760;2023-11-21T09:27:07;4.28;;;1.80;;
30515;SDS011;17297;54.022;10.760;2023-11-21T09:29:33;4.93;;;1.58;;
30515;SDS011;17297;54.022;10.760;2023-11-21T09:31:58;5.07;;;2.72;;
30515;SDS011;17297;54.022;10.760;2023-11-21T09:34:26;3.40;;;2.10;;
30515;SDS011;17297;54.022;10.760;2023-11-21T09:36:52;3.70;;;2.63;;
30515;SDS011;17297;54.022;10.760;2023-11-21T09:39:18;7.88;;;2.97;;
30515;SDS011;17297;54.022;10.760;2023-11-21T09:41:44;6.30;;;3.22;;
30515;SDS011;17297;54.022;10.760;2023-11-21T09:44:14;7.50;;;3.15;;
30515;SDS011;17297;54.022;10.760;2023-11-21T09:46:43;4.32;;;2.53;;
30515;SDS011;17297;54.022;10.760;2023-11-21T09:49:13;7.05;;;3.53;;
30515;SDS011;17297;54.022;10.760;2023-11-21T09:51:39;4.82;;;3.05;;
30515;SDS011;17297;54.022;10.760;2023-11-21T09:54:08;3.60;;;2.40;;
30515;SDS011;17297;54.022;10.760;2023-11-21T09:56:37;3.55;;;2.47;;
30515;SDS011;17297;54.022;10.760;2023-11-21T09:59:03;5.50;;;2.60;;
30515;SDS011;17297;54.022;10.760;2023-11-21T10:01:33;4.85;;;2.70;;
30515;SDS011;17297;54.022;10.760;2023-11-21T10:04:01;6.35;;;2.70;;
30515;SDS011;17297;54.022;10.760;2023-11-21T10:06:26;7.60;;;3.10;;
30515;SDS011;17297;54.022;10.760;2023-11-21T10:08:55;3.55;;;2.78;;
30515;SDS011;17297;54.022;10.760;2023-11-21T10:11:25;6.07;;;4.05;;
30515;SDS011;17297;54.022;10.760;2023-11-21T10:13:55;6.97;;;3.38;;
30515;SDS011;17297;54.022;10.760;2023-11-21T10:16:22;6.53;;;4.00;;
30515;SDS011;17297;54.022;10.760;2023-11-21T10:18:52;5.35;;;3.15;;
30515;SDS011;17297;54.022;10.760;2023-11-21T10:21:19;4.70;;;3.85;;
30515;SDS011;17297;54.022;10.760;2023-11-21T10:23:44;6.57;;;3.05;;
30515;SDS011;17297;54.022;10.760;2023-11-21T10:26:11;6.32;;;2.75;;
30515;SDS011;17297;54.022;10.760;2023-11-21T10:29:02;5.75;;;3.33;;
30515;SDS011;17297;54.022;10.760;2023-11-21T10:31:30;5.00;;;2.92;;
30515;SDS011;17297;54.022;10.760;2023-11-21T10:34:15;3.53;;;2.50;;
30515;SDS011;17297;54.022;10.760;2023-11-21T10:36:41;7.50;;;3.28;;
30515;SDS011;17297;54.022;10.760;2023-11-21T10:39:07;4.75;;;2.95;;
30515;SDS011;17297;54.022;10.760;2023-11-21T10:41:34;4.03;;;2.88;;
30515;SDS011;17297;54.022;10.760;2023-11-21T10:44:00;5.15;;;3.50;;
30515;SDS011;17297;54.022;10.760;2023-11-21T10:46:32;7.50;;;3.30;;
30515;SDS011;17297;54.022;10.760;2023-11-21T10:48:58;5.40;;;2.95;;
30515;SDS011;17297;54.022;10.760;2023-11-21T10:51:25;4.03;;;2.95;;
30515;SDS011;17297;54.022;10.760;2023-11-21T10:53:53;5.50;;;3.00;;
30515;SDS011;17297;54.022;10.760;2023-11-21T10:56:19;3.30;;;2.58;;
30515;SDS011;17297;54.022;10.760;2023-11-21T10:58:48;4.10;;;3.42;;
30515;SDS011;17297;54.022;10.760;2023-11-21T11:01:14;5.90;;;3.75;;
30515;SDS011;17297;54.022;10.760;2023-11-21T11:03:42;4.55;;;2.78;;
30515;SDS011;17297;54.022;10.760;2023-11-21T11:06:09;5.15;;;3.13;;
30515;SDS011;17297;54.022;10.760;2023-11-21T11:08:40;7.03;;;3.10;;
30515;SDS011;17297;54.022;10.760;2023-11-21T11:11:05;5.55;;;3.00;;
30515;SDS011;17297;54.022;10.760;2023-11-21T11:13:31;3.90;;;2.45;;
30515;SDS011;17297;54.022;10.760;2023-11-21T11:15:58;8.15;;;4.00;;
30515;SDS011;17297;54.022;10.760;2023-11-21T11:18:25;3.70;;;2.90;;
30515;SDS011;17297;54.022;10.760;2023-11-21T11:20:51;7.63;;;3.25;;
30515;SDS011;17297;54.022;10.760;2023-11-21T11:23:27;8.30;;;3.67;;
30515;SDS011;17297;54.022;10.760;2023-11-21T11:31:48;4.38;;;2.75;;
30515;SDS011;17297;54.022;10.760;2023-11-21T11:34:28;6.00;;;2.60;;
30515;SDS011;17297;54.022;10.760;2023-11-21T11:37:01;6.25;;;2.80;;
30515;SDS011;17297;54.022;10.760;2023-11-21T11:39:29;5.50;;;2.55;;
30515;SDS011;17297;54.022;10.760;2023-11-21T11:42:07;5.47;;;2.40;;
30515;SDS011;17297;54.022;10.760;2023-11-21T11:50:01;6.53;;;2.17;;
30515;SDS011;17297;54.022;10.760;2023-11-21T11:52:48;3.40;;;2.00;;
30515;SDS011;17297;54.022;10.760;2023-11-21T11:55:20;3.95;;;2.35;;
30515;SDS011;17297;54.022;10.760;2023-11-21T11:57:48;5.10;;;2.80;;
30515;SDS011;17297;54.022;10.760;2023-11-21T12:02:53;3.30;;;2.15;;
30515;SDS011;17297;54.022;10.760;2023-11-21T12:05:20;5.15;;;2.72;;
30515;SDS011;17297;54.022;10.760;2023-11-21T12:07:50;5.68;;;2.53;;
30515;SDS011;17297;54.022;10.760;2023-11-21T12:10:20;3.25;;;2.60;;
30515;SDS011;17297;54.022;10.760;2023-11-21T12:13:04;6.22;;;2.28;;
30515;SDS011;17297;54.022;10.760;2023-11-21T12:15:33;4.05;;;2.97;;
30515;SDS011;17297;54.022;10.760;2023-11-21T12:18:00;3.60;;;2.78;;
30515;SDS011;17297;54.022;10.760;2023-11-21T12:20:26;7.63;;;2.90;;
30515;SDS011;17297;54.022;10.760;2023-11-21T12:22:53;6.43;;;2.78;;
30515;SDS011;17297;54.022;10.760;2023-11-21T12:25:21;4.63;;;2.05;;
30515;SDS011;17297;54.022;10.760;2023-11-21T12:27:49;5.15;;;2.00;;
30515;SDS011;17297;54.022;10.760;2023-11-21T12:30:16;6.57;;;2.90;;
30515;SDS011;17297;54.022;10.760;2023-11-21T12:32:43;10.27;;;3.65;;
30515;SDS011;17297;54.022;10.760;2023-11-21T12:35:11;4.57;;;2.42;;
30515;SDS011;17297;54.022;10.760;2023-11-21T12:37:40;6.25;;;3.58;;
30515;SDS011;17297;54.022;10.760;2023-11-21T12:40:09;7.65;;;2.65;;
30515;SDS011;17297;54.022;10.760;2023-11-21T12:42:46;5.40;;;2.40;;
30515;SDS011;17297;54.022;10.760;2023-11-21T12:47:48;4.88;;;2.28;;
30515;SDS011;17297;54.022;10.760;2023-11-21T12:50:15;3.95;;;1.83;;
30515;SDS011;17297;54.022;10.760;2023-11-21T12:52:46;7.00;;;2.20;;
30515;SDS011;17297;54.022;10.760;2023-11-21T12:55:19;6.80;;;2.45;;
30515;SDS011;17297;54.022;10.760;2023-11-21T12:57:53;4.82;;;2.15;;
30515;SDS011;17297;54.022;10.760;2023-11-21T13:00:20;3.45;;;2.20;;
30515;SDS011;17297;54.022;10.760;2023-11-21T13:02:55;4.82;;;2.53;;
30515;SDS011;17297;54.022;10.760;2023-11-21T13:05:34;7.00;;;2.90;;
30515;SDS011;17297;54.022;10.760;2023-11-21T13:08:04;4.22;;;1.73;;
30515;SDS011;17297;54.022;10.760;2023-11-21T13:10:33;10.77;;;2.53;;
30515;SDS011;17297;54.022;10.760;2023-11-21T13:13:01;3.67;;;2.17;;
30515;SDS011;17297;54.022;10.760;2023-11-21T13:15:30;6.35;;;2.30;;
30515;SDS011;17297;54.022;10.760;2023-11-21T13:17:57;4.65;;;2.08;;
30515;SDS011;17297;54.022;10.760;2023-11-21T13:20:27;8.85;;;2.85;;
30515;SDS011;17297;54.022;10.760;2023-11-21T13:22:53;7.78;;;3.55;;
30515;SDS011;17297;54.022;10.760;2023-11-21T13:25:23;5.60;;;3.05;;
30515;SDS011;17297;54.022;10.760;2023-11-21T13:27:48;3.85;;;2.15;;
30515;SDS011;17297;54.022;10.760;2023-11-21T13:30:15;5.97;;;2.80;;
30515;SDS011;17297;54.022;10.760;2023-11-21T13:32:42;6.15;;;2.45;;
30515;SDS011;17297;54.022;10.760;2023-11-21T13:35:08;7.78;;;2.65;;
30515;SDS011;17297;54.022;10.760;2023-11-21T13:37:40;6.47;;;2.55;;
30515;SDS011;17297;54.022;10.760;2023-11-21T13:40:05;6.72;;;2.70;;
30515;SDS011;17297;54.022;10.760;2023-11-21T13:42:39;2.72;;;2.40;;
30515;SDS011;17297;54.022;10.760;2023-11-21T13:45:06;7.93;;;3.38;;
30515;SDS011;17297;54.022;10.760;2023-11-21T13:47:31;4.75;;;2.40;;
30515;SDS011;17297;54.022;10.760;2023-11-21T13:49:59;6.85;;;3.00;;
30515;SDS011;17297;54.022;10.760;2023-11-21T13:52:25;5.80;;;2.30;;
30515;SDS011;17297;54.022;10.760;2023-11-21T13:54:52;5.80;;;2.83;;
30515;SDS011;17297;54.022;10.760;2023-11-21T13:57:18;4.18;;;2.55;;
30515;SDS011;17297;54.022;10.760;2023-11-21T13:59:45;7.95;;;2.63;;
30515;SDS011;17297;54.022;10.760;2023-11-21T14:02:10;2.65;;;2.03;;
30515;SDS011;17297;54.022;10.760;2023-11-21T14:04:53;3.28;;;2.38;;
30515;SDS011;17297;54.022;10.760;2023-11-21T14:07:20;6.60;;;2.17;;
30515;SDS011;17297;54.022;10.760;2023-11-21T14:10:03;5.05;;;2.67;;
30515;SDS011;17297;54.022;10.760;2023-11-21T14:12:32;7.93;;;2.45;;
30515;SDS011;17297;54.022;10.760;2023-11-21T14:15:01;5.28;;;3.03;;
30515;SDS011;17297;54.022;10.760;2023-11-21T14:17:30;5.43;;;2.13;;
30515;SDS011;17297;54.022;10.760;2023-11-21T14:19:55;3.72;;;2.00;;
30515;SDS011;17297;54.022;10.760;2023-11-21T14:22:21;4.07;;;1.98;;
30515;SDS011;17297;54.022;10.760;2023-11-21T14:24:46;4.47;;;1.77;;
30515;SDS011;17297;54.022;10.760;2023-11-21T14:27:12;8.30;;;3.00;;
30515;SDS011;17297;54.022;10.760;2023-11-21T14:29:38;6.13;;;3.10;;
30515;SDS011;17297;54.022;10.760;2023-11-21T14:32:07;5.13;;;3.63;;
30515;SDS011;17297;54.022;10.760;2023-11-21T14:34:33;4.60;;;2.00;;
30515;SDS011;17297;54.022;10.760;2023-11-21T14:36:58;4.90;;;2.50;;
30515;SDS011;17297;54.022;10.760;2023-11-21T14:39:23;6.13;;;3.15;;
30515;SDS011;17297;54.022;10.760;2023-11-21T14:41:51;3.00;;;2.20;;
30515;SDS011;17297;54.022;10.760;2023-11-21T14:44:18;3.15;;;2.33;;
30515;SDS011;17297;54.022;10.760;2023-11-21T14:46:43;5.13;;;2.65;;
30515;SDS011;17297;54.022;10.760;2023-11-21T14:49:11;7.00;;;3.08;;